Etusivu
METAR-TAF:

METAR-TAF

Lentoasemat :

Vamdrup

Kolding, Tanska

Leveyspiiri: 55-26N, Pituuspiiri: 009-20E, korkeus merenpinnasta: 44 m

Tämänhetkinen sää

Tämä raportti tehtiin 21 minuuttia sitten, kello 05.20 UTC
Tuuli 5 kn etelästä/kaakosta
Lämpötila 5°C
Kosteus 93%
Ilmanpaine 1015 hPa

METAR: EKVD 210520Z AUTO 15005KT //// ///////// 05/04 Q1015

Aika: 06:41 (05:41 UTC)

Sääennuste

Tämä raportti tehtiin 17 tuntia ja 41 minuuttia sitten, kello 12.00 UTC
Ennuste voimassa 20. päivästä klo 12 UTC - 20. päivään klo 17 UTC
Tuuli 6 kn idästä/koillisesta
Näkyvyys 10 km tai enemmän
Hajonneita pilviä 4000 ft:n korkeudessa

TAF: EKVD 201200Z 2012/2017 06006KT 9999 BKN040

Säähavainnot ja -ennusteet yli 4000 lentoasemalta (METAR- ja TAF-raportit).

Käytössä olevat sääasemat on merkitty karttaan keltaisilla ja punaisilla pisteillä.

Aseta hiiri pisteen päälle nähdäksesi sääaseman nimen.

Klikkaa sitten nähdäksesi säähavainnot ja -ennusteet.

Kartan vaihtaminen: klikkaa mustalla rastilla varustettuja vihreitä pisteitä, niin voit zoomata sisään; viivalla varustettua vihreää pistettä, niin voit zoomata ulos tai vihreitä nuolia, niin pääset viereisille kartoille.


METAR-TAF: